createdAt,value
2023-04-28T00:03:55.372Z,19.80
2023-04-28T00:08:58.478Z,19.80
2023-04-28T00:14:01.343Z,19.80
2023-04-28T00:19:06.007Z,19.80
2023-04-28T00:24:09.236Z,19.80
2023-04-28T00:29:12.376Z,19.80
2023-04-28T00:34:16.813Z,19.80
2023-04-28T00:39:20.005Z,19.80
2023-04-28T00:44:22.869Z,19.80
2023-04-28T00:49:27.111Z,19.80
2023-04-28T00:54:30.212Z,19.80
2023-04-28T00:59:33.125Z,19.80
2023-04-28T01:04:37.881Z,19.80
2023-04-28T01:09:40.940Z,19.80
2023-04-28T01:14:44.152Z,19.70
2023-04-28T01:19:48.390Z,19.70
2023-04-28T01:24:52.626Z,19.70
2023-04-28T01:29:55.513Z,19.70
2023-04-28T01:34:58.386Z,19.70
2023-04-28T01:40:02.616Z,19.70
2023-04-28T01:45:06.275Z,19.70
2023-04-28T01:50:09.721Z,19.70
2023-04-28T01:55:15.267Z,19.70
2023-04-28T02:00:18.992Z,19.70
2023-04-28T02:05:21.888Z,19.70
2023-04-28T02:10:26.353Z,19.70
2023-04-28T02:15:29.574Z,19.70
2023-04-28T02:20:33.413Z,19.70
2023-04-28T02:25:37.851Z,19.70
2023-04-28T02:30:40.932Z,19.70
2023-04-28T02:35:43.857Z,19.60
2023-04-28T02:40:48.221Z,19.70
2023-04-28T02:45:51.315Z,19.70
2023-04-28T02:50:54.413Z,19.80
2023-04-28T02:55:59.504Z,19.60
2023-04-28T03:01:02.461Z,19.70
2023-04-28T03:06:05.966Z,19.60
2023-04-28T03:11:11.127Z,19.70
2023-04-28T03:16:14.056Z,19.70
2023-04-28T03:21:16.952Z,19.60
2023-04-28T03:26:21.493Z,19.70
2023-04-28T03:31:24.387Z,19.60
2023-04-28T03:36:27.594Z,19.60
2023-04-28T03:41:31.952Z,19.60
2023-04-28T03:46:35.486Z,19.70
2023-04-28T03:51:38.462Z,19.60
2023-04-28T03:56:42.886Z,19.60
2023-04-28T04:01:45.807Z,19.60
2023-04-28T04:06:48.774Z,19.60
2023-04-28T04:11:53.124Z,19.60
2023-04-28T04:16:56.308Z,19.60
2023-04-28T04:21:59.305Z,19.60
2023-04-28T04:27:03.555Z,19.60
2023-04-28T04:32:06.657Z,19.60
2023-04-28T04:37:10.669Z,19.60
2023-04-28T04:42:24.869Z,19.60
2023-04-28T04:47:28.706Z,19.60
2023-04-28T04:52:31.595Z,19.60
2023-04-28T04:57:35.893Z,19.60
2023-04-28T05:02:38.925Z,19.60
2023-04-28T05:07:41.909Z,19.50
2023-04-28T05:12:48.821Z,19.50
2023-04-28T05:17:52.158Z,19.50
2023-04-28T05:22:55.030Z,19.50
2023-04-28T05:27:59.325Z,19.50
2023-04-28T05:33:02.322Z,19.50
2023-04-28T05:38:05.236Z,19.50
2023-04-28T05:43:09.489Z,19.50
2023-04-28T05:48:12.524Z,19.50
2023-04-28T05:53:15.491Z,19.50
2023-04-28T05:58:19.728Z,19.50
2023-04-28T06:03:22.804Z,19.40
2023-04-28T06:08:26.020Z,19.30
2023-04-28T06:13:30.386Z,19.40
2023-04-28T06:18:33.461Z,19.40
2023-04-28T06:23:37.449Z,19.50
2023-04-28T06:28:41.741Z,19.40
2023-04-28T06:33:44.754Z,19.50
2023-04-28T06:38:47.864Z,19.50
2023-04-28T06:43:52.115Z,19.40
2023-04-28T06:48:54.984Z,19.50
2023-04-28T06:53:57.867Z,19.50
2023-04-28T06:59:03.148Z,19.50
2023-04-28T07:04:06.454Z,19.50
2023-04-28T07:09:09.545Z,19.50
2023-04-28T07:14:13.920Z,19.50
2023-04-28T07:19:16.944Z,19.50
2023-04-28T07:24:19.829Z,19.50
2023-04-28T07:29:24.121Z,19.50
2023-04-28T07:34:27.422Z,19.50
2023-04-28T07:39:31.845Z,19.60
2023-04-28T07:44:36.772Z,19.60
2023-04-28T07:49:39.708Z,19.50
2023-04-28T07:54:42.625Z,19.60
2023-04-28T07:59:46.866Z,19.50
2023-04-28T08:04:49.827Z,19.50
2023-04-28T08:09:53.791Z,19.50
2023-04-28T08:14:58.283Z,19.50
2023-04-28T08:20:01.154Z,19.50
2023-04-28T08:25:04.066Z,19.50
2023-04-28T08:30:10.032Z,19.50
2023-04-28T08:35:12.917Z,19.50
2023-04-28T08:40:16.032Z,19.50
2023-04-28T08:45:21.073Z,19.50
2023-04-28T08:50:24.077Z,19.50
2023-04-28T08:55:27.936Z,19.50
2023-04-28T09:00:32.571Z,19.50
2023-04-28T09:05:35.961Z,19.50
2023-04-28T09:10:39.644Z,19.50
2023-04-28T09:15:45.533Z,19.50
2023-04-28T09:20:48.728Z,19.60
2023-04-28T09:26:01.891Z,19.60
2023-04-28T09:31:06.348Z,19.60
2023-04-28T09:36:09.415Z,19.60
2023-04-28T09:41:12.289Z,19.60
2023-04-28T09:46:30.452Z,19.60
2023-04-28T09:51:34.574Z,19.70
2023-04-28T09:56:40.878Z,19.70
2023-04-28T10:01:46.168Z,19.70
2023-04-28T10:06:49.456Z,19.70
2023-04-28T10:11:52.423Z,19.70
2023-04-28T10:16:58.010Z,19.70
2023-04-28T10:22:20.275Z,19.80
2023-04-28T10:27:30.201Z,19.80
2023-04-28T10:32:34.618Z,19.70
2023-04-28T10:38:03.944Z,19.80
2023-04-28T10:43:07.677Z,19.80
2023-04-28T10:48:11.909Z,19.90
2023-04-28T10:53:15.124Z,19.90
2023-04-28T10:58:34.093Z,19.90
2023-04-28T11:03:51.510Z,19.90
2023-04-28T11:08:56.564Z,20.00
2023-04-28T11:14:33.292Z,20.00
2023-04-28T11:19:38.993Z,20.00
2023-04-28T11:24:42.073Z,20.00
2023-04-28T11:29:46.842Z,20.10
2023-04-28T11:34:54.058Z,20.00
2023-04-28T11:39:57.362Z,20.10
2023-04-28T11:45:00.416Z,20.10
2023-04-28T11:50:05.059Z,20.10
2023-04-28T11:55:08.666Z,20.10
2023-04-28T12:00:19.199Z,20.10
2023-04-28T12:05:24.327Z,20.10
2023-04-28T12:10:27.261Z,20.20
2023-04-28T12:15:41.516Z,20.20
2023-04-28T12:20:46.064Z,20.20
2023-04-28T12:25:49.064Z,20.30
2023-04-28T12:30:51.932Z,20.30
2023-04-28T12:35:57.760Z,20.30
2023-04-28T12:41:01.074Z,20.30
2023-04-28T12:46:04.963Z,20.30
2023-04-28T12:51:09.217Z,20.30
2023-04-28T12:56:12.097Z,20.40
2023-04-28T13:01:16.013Z,20.40
2023-04-28T13:06:20.458Z,20.40
2023-04-28T13:11:24.822Z,20.40
2023-04-28T13:16:29.424Z,20.40
2023-04-28T13:21:33.715Z,20.40
2023-04-28T13:26:36.681Z,20.40
2023-04-28T13:31:39.708Z,20.50
2023-04-28T13:36:44.313Z,20.50
2023-04-28T13:41:47.226Z,20.50
2023-04-28T13:46:50.287Z,20.60
2023-04-28T13:51:54.541Z,20.60
2023-04-28T13:56:57.768Z,20.50
2023-04-28T14:02:00.830Z,20.60
2023-04-28T14:07:05.208Z,20.60
2023-04-28T14:12:08.659Z,20.60
2023-04-28T14:17:12.497Z,20.60
2023-04-28T14:22:16.746Z,20.60
2023-04-28T14:27:20.031Z,20.60
2023-04-28T14:32:22.890Z,20.70
2023-04-28T14:37:27.873Z,20.70
2023-04-28T14:42:32.932Z,20.70
2023-04-28T14:47:36.926Z,20.70
2023-04-28T14:52:42.513Z,20.70
2023-04-28T14:57:45.481Z,20.70
2023-04-28T15:02:48.552Z,20.80
2023-04-28T15:07:52.906Z,20.70
2023-04-28T15:12:56.042Z,20.70
2023-04-28T15:18:00.790Z,20.70
2023-04-28T15:23:05.502Z,20.70
2023-04-28T15:28:08.972Z,20.70
2023-04-28T15:33:17.087Z,20.60
2023-04-28T15:38:21.940Z,20.60
2023-04-28T15:43:25.110Z,20.60
2023-04-28T15:48:28.490Z,20.60
2023-04-28T15:53:33.062Z,20.60
2023-04-28T15:58:36.253Z,20.60
2023-04-28T16:03:39.631Z,20.50
2023-04-28T16:08:43.992Z,20.60
2023-04-28T16:13:46.833Z,20.60
2023-04-28T16:18:49.669Z,20.60
2023-04-28T16:23:54.232Z,20.60
2023-04-28T16:28:57.128Z,20.60
2023-04-28T16:33:59.971Z,20.60
2023-04-28T16:39:04.286Z,20.60
2023-04-28T16:44:08.124Z,20.50
2023-04-28T16:49:12.450Z,20.60
2023-04-28T16:54:16.655Z,20.50
2023-04-28T16:59:19.857Z,20.50
2023-04-28T17:04:23.726Z,20.60
2023-04-28T17:09:28.121Z,20.50
2023-04-28T17:14:30.984Z,20.60
2023-04-28T17:19:33.987Z,20.50
2023-04-28T17:24:38.235Z,20.50
2023-04-28T17:29:43.555Z,20.50
2023-04-28T17:34:46.505Z,20.50
2023-04-28T17:39:52.280Z,20.40
2023-04-28T17:44:55.378Z,20.40
2023-04-28T17:49:58.292Z,20.40
2023-04-28T17:55:02.518Z,20.40
2023-04-28T18:00:06.322Z,20.40
2023-04-28T18:05:09.492Z,20.40
2023-04-28T18:10:15.125Z,20.40
2023-04-28T18:15:18.136Z,20.40
2023-04-28T18:20:21.045Z,20.30
2023-04-28T18:25:25.619Z,20.30
2023-04-28T18:30:37.724Z,20.30
2023-04-28T18:35:41.333Z,20.30
2023-04-28T18:40:45.544Z,20.20
2023-04-28T18:45:48.550Z,20.20
2023-04-28T18:50:51.728Z,20.20
2023-04-28T18:55:58.015Z,20.20
2023-04-28T19:01:01.128Z,20.20
2023-04-28T19:06:04.120Z,20.10
2023-04-28T19:11:09.467Z,20.10
2023-04-28T19:16:14.619Z,20.10
2023-04-28T19:21:17.522Z,20.10
2023-04-28T19:26:21.833Z,20.10
2023-04-28T19:31:26.647Z,20.10
2023-04-28T19:36:29.550Z,20.10
2023-04-28T19:41:33.766Z,20.00
2023-04-28T19:46:37.734Z,20.10
2023-04-28T19:51:40.748Z,20.00
2023-04-28T19:56:44.964Z,20.00
2023-04-28T20:01:47.935Z,20.00
2023-04-28T20:06:50.806Z,20.00
2023-04-28T20:11:55.039Z,20.00
2023-04-28T20:16:58.627Z,19.90
2023-04-28T20:22:04.866Z,19.90
2023-04-28T20:27:12.018Z,19.90
2023-04-28T20:32:14.907Z,19.90
2023-04-28T20:37:17.767Z,19.90
2023-04-28T20:42:22.064Z,19.90
2023-04-28T20:47:25.427Z,19.90
2023-04-28T20:52:28.414Z,19.90
2023-04-28T20:57:32.630Z,19.90
2023-04-28T21:02:36.232Z,19.90
2023-04-28T21:07:39.254Z,19.90
2023-04-28T21:12:43.512Z,19.90
2023-04-28T21:17:46.466Z,19.80
2023-04-28T21:22:49.535Z,19.90
2023-04-28T21:27:53.976Z,19.80
2023-04-28T21:32:57.124Z,19.80
2023-04-28T21:38:00.039Z,19.80
2023-04-28T21:43:04.273Z,19.80
2023-04-28T21:48:08.086Z,19.80
2023-04-28T21:53:11.090Z,19.80
2023-04-28T21:58:15.402Z,19.80
2023-04-28T22:03:18.803Z,19.80
2023-04-28T22:08:21.888Z,19.80
2023-04-28T22:13:26.119Z,19.80
2023-04-28T22:18:29.447Z,19.80
2023-04-28T22:23:32.652Z,19.80
2023-04-28T22:28:37.513Z,19.80
2023-04-28T22:33:40.521Z,19.80
2023-04-28T22:38:43.397Z,19.80
2023-04-28T22:43:48.352Z,19.80
2023-04-28T22:48:51.814Z,19.80
2023-04-28T22:53:55.242Z,19.80
2023-04-28T22:58:59.598Z,19.80
2023-04-28T23:04:02.803Z,19.80
2023-04-28T23:09:05.835Z,19.80
2023-04-28T23:14:10.040Z,19.80
2023-04-28T23:19:12.900Z,19.80
2023-04-28T23:24:15.775Z,19.80
2023-04-28T23:29:20.292Z,19.70
2023-04-28T23:34:23.389Z,19.70
2023-04-28T23:39:27.038Z,19.80
2023-04-28T23:44:31.306Z,19.80
2023-04-28T23:49:34.174Z,19.80
2023-04-28T23:54:37.046Z,19.80
2023-04-28T23:59:41.356Z,19.70
